Time;durP1;ratioP1;P1;durP2;ratioP2;P2;SDS_P1;SDS_P2;PMS_P1;PMS_P2;Temp;Humidity;BMP_temperature;BMP_pressure;BME280_temperature;BME280_humidity;BME280_pressure;Samples;Min_cycle;Max_cycle;Signal;HPM_P1;HPM_P2
2021/04/26 00:00:35;;;;;;;3.60;2.20;;;;;;;4.61;72.97;99459.41;3470542;28;20065;-52
2021/04/26 00:02:16;;;;;;;5.45;3.20;;;;;;;4.56;73.44;99469.53;3475708;28;20158;-46
2021/04/26 00:03:58;;;;;;;4.60;2.20;;;;;;;4.53;74.76;99468.53;3483649;28;20049;-47
2021/04/26 00:05:39;;;;;;;5.53;2.65;;;;;;;4.51;74.66;99476.22;3478705;28;20056;-46
2021/04/26 00:07:21;;;;;;;4.32;2.15;;;;;;;4.49;74.83;99477.84;3482447;28;20056;-46
2021/04/26 00:09:04;;;;;;;5.15;2.20;;;;;;;4.45;74.62;99481.13;3481381;28;20079;-54
2021/04/26 00:10:45;;;;;;;4.70;2.58;;;;;;;4.41;74.67;99480.16;3480144;28;20053;-58
2021/04/26 00:12:27;;;;;;;4.40;2.75;;;;;;;4.39;75.68;99483.50;3470023;28;20073;-60
2021/04/26 00:14:18;;;;;;;4.68;2.08;;;;;;;4.36;76.63;99479.13;3475276;28;20049;-59
2021/04/26 00:16:00;;;;;;;4.55;2.20;;;;;;;4.36;76.05;99481.69;3483414;28;20056;-59
2021/04/26 00:17:41;;;;;;;3.40;2.15;;;;;;;4.33;77.06;99479.00;3479209;28;20111;-59
2021/04/26 00:19:22;;;;;;;6.80;2.20;;;;;;;4.30;77.05;99478.03;3479727;28;20041;-59
2021/04/26 00:21:06;;;;;;;4.05;2.05;;;;;;;4.27;77.33;99481.38;3480646;28;20506;-48
2021/04/26 00:22:48;;;;;;;4.50;1.67;;;;;;;4.26;77.70;99479.59;3480438;28;20045;-48
2021/04/26 00:24:29;;;;;;;3.67;2.03;;;;;;;4.26;78.38;99484.75;3471502;28;20072;-59
2021/04/26 00:26:11;;;;;;;3.90;1.80;;;;;;;4.25;78.11;99482.13;3476474;28;20462;-48
2021/04/26 00:27:53;;;;;;;5.20;2.00;;;;;;;4.21;77.85;99484.59;3483683;28;20045;-47
2021/04/26 00:29:35;;;;;;;4.15;2.55;;;;;;;4.20;78.16;99484.53;3480377;28;20053;-53
2021/04/26 00:31:16;;;;;;;3.30;2.15;;;;;;;4.16;78.22;99488.69;3481568;28;20052;-47
2021/04/26 00:32:58;;;;;;;3.90;2.28;;;;;;;4.14;78.82;99492.00;3481132;28;20087;-47
2021/04/26 00:34:40;;;;;;;6.65;2.30;;;;;;;4.11;79.08;99486.78;3480714;28;20624;-52
2021/04/26 00:36:21;;;;;;;5.28;2.42;;;;;;;4.08;79.31;99486.66;3470053;28;20061;-47
2021/04/26 00:38:03;;;;;;;3.40;2.40;;;;;;;4.02;79.54;99479.63;3475414;28;20115;-52
2021/04/26 00:39:44;;;;;;;4.63;2.05;;;;;;;3.97;79.73;99476.88;3483173;28;20295;-54
2021/04/26 00:41:26;;;;;;;5.53;1.90;;;;;;;3.93;79.79;99476.69;3480019;28;20052;-51
2021/04/26 00:43:07;;;;;;;2.97;1.90;;;;;;;3.88;80.19;99478.19;3480134;28;20088;-47
2021/04/26 00:44:49;;;;;;;4.28;1.88;;;;;;;3.85;80.73;99473.84;3482385;28;20049;-53
2021/04/26 00:46:30;;;;;;;5.25;2.15;;;;;;;3.78;81.08;99475.31;3478602;28;20060;-47
2021/04/26 00:48:12;;;;;;;4.53;2.00;;;;;;;3.73;81.05;99473.38;3483446;28;20111;-47
2021/04/26 00:49:53;;;;;;;3.72;2.15;;;;;;;3.67;81.30;99466.34;3478711;28;20041;-49
2021/04/26 00:51:34;;;;;;;3.22;1.98;;;;;;;3.62;81.74;99461.03;3483774;28;20115;-51
2021/04/26 00:53:16;;;;;;;3.80;1.80;;;;;;;3.56;81.73;99458.25;3480048;28;20057;-47
2021/04/26 00:54:58;;;;;;;4.35;2.03;;;;;;;3.49;82.01;99458.81;3481557;28;20041;-46
2021/04/26 00:56:40;;;;;;;3.63;1.60;;;;;;;3.41;82.48;99453.38;3480797;28;20090;-48
2021/04/26 00:58:22;;;;;;;3.88;2.03;;;;;;;3.34;82.69;99456.53;3480201;28;20049;-47
2021/04/26 01:00:06;;;;;;;2.72;1.67;;;;;;;3.31;82.65;99451.28;3483131;28;20457;-56
2021/04/26 01:01:47;;;;;;;;;;;;;;;3.26;82.76;99456.25;3478779;28;20052;-57
2021/04/26 01:03:29;;;;;;;4.65;1.73;;;;;;;3.23;83.58;99445.84;3482923;28;19924;-51
2021/04/26 01:05:13;;;;;;;4.50;1.70;;;;;;;3.22;83.70;99436.44;3479737;28;20060;-58
2021/04/26 01:06:56;;;;;;;3.00;1.80;;;;;;;3.20;83.50;99435.47;3480617;28;20056;-58
2021/04/26 01:08:37;;;;;;;3.42;1.70;;;;;;;3.19;83.58;99437.97;3480450;28;20052;-58
2021/04/26 01:10:21;;;;;;;3.40;1.88;;;;;;;3.19;83.91;99438.88;3477896;28;20077;-58
2021/04/26 01:12:11;;;;;;;5.10;2.17;;;;;;;3.18;83.63;99455.06;3482856;28;20052;-59
2021/04/26 01:14:04;;;;;;;2.55;1.63;;;;;;;3.18;83.85;99452.50;3478030;28;20472;-48
2021/04/26 01:15:56;;;;;;;2.83;1.40;;;;;;;3.17;84.31;99439.59;3479554;28;20077;-48
2021/04/26 01:17:43;;;;;;;4.45;1.85;;;;;;;3.16;84.06;99443.00;3481500;28;20057;-49
2021/04/26 01:19:50;;;;;;;2.72;1.80;;;;;;;3.15;83.99;99444.66;3479389;28;20083;-58
2021/04/26 01:22:02;;;;;;;4.25;1.55;;;;;;;3.15;83.60;99436.97;3481517;28;20049;-58
2021/04/26 01:24:11;;;;;;;2.95;1.70;;;;;;;3.14;83.45;99432.69;3482081;28;20048;-49
2021/04/26 01:25:53;;;;;;;2.78;1.70;;;;;;;3.14;83.92;99416.44;3477253;28;20475;-50
2021/04/26 01:28:05;;;;;;;4.28;1.77;;;;;;;3.12;83.06;99400.09;3479054;28;20081;-58
2021/04/26 01:30:07;;;;;;;3.75;1.63;;;;;;;3.12;83.59;99397.53;3468773;28;20479;-58
2021/04/26 01:32:17;;;;;;;2.78;1.60;;;;;;;3.12;83.59;99398.44;3476961;28;20063;-58
2021/04/26 01:34:00;;;;;;;3.33;1.75;;;;;;;3.10;82.80;99400.06;3478500;28;20049;-48
2021/04/26 01:35:42;;;;;;;4.97;2.20;;;;;;;3.10;82.69;99402.66;3482644;28;20053;-48
2021/04/26 01:37:24;;;;;;;3.65;1.30;;;;;;;3.08;82.90;99394.88;3478848;28;20087;-49
2021/04/26 01:39:06;;;;;;;2.17;1.50;;;;;;;3.08;82.45;99399.13;3482455;28;20049;-47
2021/04/26 01:40:52;;;;;;;3.85;2.20;;;;;;;3.07;82.75;99405.06;3480297;28;20576;-47
2021/04/26 01:42:36;;;;;;;3.08;1.80;;;;;;;3.09;82.88;99409.44;3480092;28;20052;-47
2021/04/26 01:44:18;;;;;;;6.05;1.75;;;;;;;3.10;83.18;99400.06;3482311;28;20076;-55
2021/04/26 01:46:03;;;;;;;3.60;1.67;;;;;;;3.11;83.46;99406.06;3479452;28;20080;-55
2021/04/26 01:47:47;;;;;;;2.70;1.38;;;;;;;3.09;83.13;99404.31;3482808;28;20049;-56
2021/04/26 01:49:29;;;;;;;5.10;2.20;;;;;;;3.09;83.32;99413.69;3479426;28;20135;-55
2021/04/26 01:51:12;;;;;;;4.35;2.10;;;;;;;3.08;83.61;99417.94;3481815;28;20153;-47
2021/04/26 01:52:55;;;;;;;3.55;2.03;;;;;;;3.06;84.28;99405.88;3479516;28;20453;-47
2021/04/26 01:54:37;;;;;;;3.90;2.00;;;;;;;3.05;84.36;99404.16;3479490;28;20048;-53
2021/04/26 01:56:20;;;;;;;5.85;1.60;;;;;;;3.05;84.65;99397.31;3481486;28;20049;-54
2021/04/26 01:58:01;;;;;;;4.43;2.30;;;;;;;3.06;85.49;99403.31;3477368;28;20053;-52
2021/04/26 01:59:43;;;;;;;7.47;2.15;;;;;;;3.07;85.82;99410.19;3482492;28;20049;-47
2021/04/26 02:01:25;;;;;;;3.40;1.95;;;;;;;3.08;85.86;99406.81;3477995;28;20056;-53
2021/04/26 02:03:08;;;;;;;3.63;1.95;;;;;;;3.07;86.22;99405.94;3480209;28;20107;-47
2021/04/26 02:04:50;;;;;;;4.23;2.40;;;;;;;3.09;86.63;99411.13;3479701;28;20146;-47
2021/04/26 02:06:33;;;;;;;3.03;2.10;;;;;;;3.09;86.06;99412.00;3480108;28;20053;-53
2021/04/26 02:08:15;;;;;;;4.45;2.25;;;;;;;3.08;85.83;99405.13;3482349;28;20044;-47
2021/04/26 02:09:57;;;;;;;3.10;2.10;;;;;;;3.08;85.55;99399.13;3477404;28;20506;-47
2021/04/26 02:11:39;;;;;;;4.93;2.58;;;;;;;3.08;85.72;99400.00;3482727;28;20114;-47
2021/04/26 02:13:21;;;;;;;3.78;2.42;;;;;;;3.11;86.13;99403.50;3476252;28;20045;-54
2021/04/26 02:15:06;;;;;;;3.78;2.95;;;;;;;3.11;86.39;99401.81;3480478;28;20053;-47
2021/04/26 02:16:48;;;;;;;5.05;2.50;;;;;;;3.12;85.86;99400.09;3480822;28;20056;-47
2021/04/26 02:18:30;;;;;;;5.72;2.97;;;;;;;3.13;85.98;99394.19;3477559;28;20132;-55
2021/04/26 02:20:14;;;;;;;5.25;2.78;;;;;;;3.13;86.08;99384.78;3482141;28;20053;-55
2021/04/26 02:21:55;;;;;;;4.75;3.00;;;;;;;3.14;85.80;99385.69;3477033;28;20049;-55
2021/04/26 02:23:37;;;;;;;3.90;3.03;;;;;;;3.14;85.94;99378.00;3481880;28;20052;-56
2021/04/26 02:25:20;;;;;;;5.57;3.17;;;;;;;3.14;85.76;99375.44;3477936;28;20110;-47
2021/04/26 02:27:02;;;;;;;5.25;3.40;;;;;;;3.15;85.86;99375.47;3478782;28;20227;-55
2021/04/26 02:28:43;;;;;;;6.30;3.00;;;;;;;3.15;85.63;99374.59;3481226;28;20057;-47
2021/04/26 02:30:25;;;;;;;6.00;3.10;;;;;;;3.13;85.04;99374.53;3478654;28;20099;-47
2021/04/26 02:32:13;;;;;;;7.72;3.28;;;;;;;3.13;85.00;99366.84;3481795;28;20081;-47
2021/04/26 02:34:01;;;;;;;5.43;3.22;;;;;;;3.14;85.13;99367.75;3477263;28;20045;-48
2021/04/26 02:35:45;;;;;;;7.13;3.97;;;;;;;3.13;85.00;99358.31;3479487;28;20056;-49
2021/04/26 02:37:42;;;;;;;7.97;2.75;;;;;;;3.12;84.65;99353.97;3479623;28;20267;-47
2021/04/26 02:39:24;;;;;;;9.13;3.60;;;;;;;3.12;84.75;99348.84;3479773;28;20045;-54
2021/04/26 02:41:11;;;;;;;4.78;2.50;;;;;;;3.11;84.62;99348.00;3484216;28;20053;-52
2021/04/26 02:42:55;;;;;;;;;;;;;;;3.10;84.06;99343.69;3481117;28;20045;-54
2021/04/26 02:44:37;;;;;;;6.45;2.75;;;;;;;3.11;83.92;99337.75;3483266;28;19925;-53
2021/04/26 02:46:24;;;;;;;7.82;3.25;;;;;;;3.10;84.00;99333.44;3482014;28;20138;-55
2021/04/26 02:48:08;;;;;;;7.72;3.42;;;;;;;3.12;84.57;99325.78;3480652;28;20091;-48
2021/04/26 02:49:51;;;;;;;5.78;3.28;;;;;;;3.12;84.70;99323.22;3483838;28;20091;-46
2021/04/26 02:51:34;;;;;;;5.30;3.33;;;;;;;3.12;84.70;99311.31;3480939;28;20087;-47
2021/04/26 02:53:16;;;;;;;4.97;3.00;;;;;;;3.09;84.50;99298.38;3483965;28;20052;-47
2021/04/26 02:54:59;;;;;;;7.30;3.47;;;;;;;3.08;84.75;99307.75;3474054;28;20069;-47
2021/04/26 02:56:41;;;;;;;8.60;3.97;;;;;;;3.08;84.79;99310.31;3471857;28;20079;-47
2021/04/26 02:58:24;;;;;;;9.27;3.40;;;;;;;3.07;84.67;99311.13;3482627;28;20525;-54
2021/04/26 03:00:07;;;;;;;6.15;3.97;;;;;;;3.06;84.95;99319.63;3480724;28;20045;-54
2021/04/26 03:01:50;;;;;;;9.35;3.75;;;;;;;3.04;85.06;99322.94;3484079;28;20080;-52
2021/04/26 03:03:34;;;;;;;6.30;3.58;;;;;;;3.03;85.38;99314.41;3480940;28;20411;-54
2021/04/26 03:05:16;;;;;;;7.65;3.10;;;;;;;3.03;85.21;99314.41;3483542;28;20633;-53
2021/04/26 03:07:01;;;;;;;6.70;2.63;;;;;;;3.01;84.51;99310.00;3480972;28;20052;-54
2021/04/26 03:08:45;;;;;;;8.98;2.92;;;;;;;2.99;84.89;99304.81;3479491;28;20045;-54
2021/04/26 03:10:26;;;;;;;5.28;3.22;;;;;;;2.99;85.09;99306.53;3483360;28;20130;-53
2021/04/26 03:12:08;;;;;;;6.28;4.07;;;;;;;2.98;85.24;99312.47;3480656;28;20057;-47
2021/04/26 03:13:50;;;;;;;6.93;3.80;;;;;;;2.97;85.34;99309.03;3482604;28;20087;-47
2021/04/26 03:15:32;;;;;;;7.55;4.10;;;;;;;2.97;85.59;99313.28;3475222;28;20529;-46
2021/04/26 03:17:14;;;;;;;8.48;4.00;;;;;;;2.96;85.51;99325.22;3470737;28;20723;-47
2021/04/26 03:18:56;;;;;;;7.15;3.78;;;;;;;2.98;85.90;99322.72;3480402;28;20486;-48
2021/04/26 03:20:38;;;;;;;7.72;4.03;;;;;;;2.96;85.96;99320.09;3480297;28;20514;-46
2021/04/26 03:22:21;;;;;;;8.75;4.55;;;;;;;2.93;86.05;99307.19;3469772;28;20430;-47
2021/04/26 03:24:03;;;;;;;7.32;4.70;;;;;;;2.92;85.64;99300.28;3474101;28;20469;-47
2021/04/26 03:25:44;;;;;;;14.65;6.07;;;;;;;2.93;85.79;99306.31;3483838;28;20045;-46
2021/04/26 03:27:27;;;;;;;8.50;4.90;;;;;;;2.92;86.10;99299.44;3479267;28;20049;-48
2021/04/26 03:29:10;;;;;;;9.70;5.03;;;;;;;2.90;85.98;99301.94;3481288;28;20056;-54
2021/04/26 03:30:51;;;;;;;9.88;6.40;;;;;;;2.89;86.17;99298.50;3481033;28;20175;-54
2021/04/26 03:32:33;;;;;;;10.73;5.75;;;;;;;2.89;86.20;99292.50;3480715;28;20053;-54
2021/04/26 03:34:15;;;;;;;9.27;6.50;;;;;;;2.90;86.18;99295.09;3482671;28;20045;-54
2021/04/26 03:35:58;;;;;;;12.68;8.23;;;;;;;2.90;86.74;99296.81;3480498;28;20048;-47
2021/04/26 03:37:40;;;;;;;15.93;8.00;;;;;;;2.88;86.62;99295.88;3484263;28;20053;-47
2021/04/26 03:39:22;;;;;;;10.25;7.40;;;;;;;2.87;86.81;99312.94;3478822;28;20087;-47
2021/04/26 03:41:04;;;;;;;11.32;7.55;;;;;;;2.87;87.07;99317.16;3481552;28;20124;-47
2021/04/26 03:42:46;;;;;;;10.43;7.38;;;;;;;2.85;87.19;99327.38;3482247;28;20056;-47
2021/04/26 03:44:28;;;;;;;10.32;6.50;;;;;;;2.84;87.37;99328.19;3480934;28;20498;-47
2021/04/26 03:46:09;;;;;;;13.18;6.53;;;;;;;2.83;87.20;99331.53;3482714;28;20053;-48
2021/04/26 03:47:51;;;;;;;10.52;6.75;;;;;;;2.81;87.75;99338.31;3478968;28;20056;-46
2021/04/26 03:49:32;;;;;;;9.23;5.47;;;;;;;2.79;87.71;99337.38;3483084;28;20048;-54
2021/04/26 03:51:15;;;;;;;8.35;5.07;;;;;;;2.79;87.85;99339.94;3480373;28;20053;-54
2021/04/26 03:52:56;;;;;;;7.07;5.70;;;;;;;2.81;88.04;99350.25;3481666;28;20083;-47
2021/04/26 03:54:38;;;;;;;8.73;5.75;;;;;;;2.80;87.91;99345.91;3482072;28;20056;-47
2021/04/26 03:56:19;;;;;;;8.68;5.70;;;;;;;2.81;88.18;99346.00;3478633;28;20076;-46
2021/04/26 03:58:03;;;;;;;7.70;5.65;;;;;;;2.83;88.05;99339.22;3483602;28;20057;-51
2021/04/26 03:59:44;;;;;;;11.63;5.50;;;;;;;2.83;87.59;99340.94;3480080;28;20502;-51
2021/04/26 04:01:28;;;;;;;12.38;6.43;;;;;;;2.84;87.81;99337.56;3483734;28;20061;-54
2021/04/26 04:03:10;;;;;;;8.90;5.72;;;;;;;2.86;88.26;99335.94;3480096;28;20045;-51
2021/04/26 04:04:52;;;;;;;12.57;5.95;;;;;;;2.88;88.17;99340.28;3481331;28;20048;-51
2021/04/26 04:06:34;;;;;;;9.82;6.28;;;;;;;2.89;88.09;99341.19;3480886;28;20477;-51
2021/04/26 04:08:15;;;;;;;9.10;5.60;;;;;;;2.91;88.32;99334.44;3478861;28;20124;-53
2021/04/26 04:09:57;;;;;;;11.40;6.38;;;;;;;2.93;88.18;99340.47;3469722;28;20434;-46
2021/04/26 04:11:38;;;;;;;8.98;6.43;;;;;;;2.97;88.20;99339.78;3476289;28;20053;-52
2021/04/26 04:13:20;;;;;;;8.23;5.78;;;;;;;2.99;88.21;99344.97;3481663;28;20049;-52
2021/04/26 04:15:02;;;;;;;7.70;5.82;;;;;;;3.01;88.32;99345.88;3479974;28;20468;-54
2021/04/26 04:16:43;;;;;;;10.25;6.32;;;;;;;3.06;88.68;99346.94;3481534;28;20052;-47
2021/04/26 04:18:25;;;;;;;8.43;6.10;;;;;;;3.07;88.24;99329.06;3480764;28;20049;-47
2021/04/26 04:20:08;;;;;;;12.85;7.50;;;;;;;3.09;88.10;99326.56;3479758;28;20045;-47
2021/04/26 04:21:51;;;;;;;13.35;7.75;;;;;;;3.13;88.22;99333.53;3469372;28;20103;-46
2021/04/26 04:23:32;;;;;;;14.43;8.35;;;;;;;3.14;88.01;99330.19;3476702;28;20067;-47
2021/04/26 04:25:14;;;;;;;13.68;8.38;;;;;;;3.16;87.77;99333.66;3482063;28;20045;-48
2021/04/26 04:26:55;;;;;;;14.02;7.70;;;;;;;3.19;88.07;99327.75;3480842;28;20107;-47
2021/04/26 04:28:37;;;;;;;11.02;6.93;;;;;;;3.22;88.42;99341.59;3478564;28;20057;-47
2021/04/26 04:30:19;;;;;;;11.77;7.60;;;;;;;3.24;87.94;99342.53;3482717;28;20067;-49
2021/04/26 04:32:00;;;;;;;14.60;8.15;;;;;;;3.25;87.57;99346.81;3478172;28;20048;-46
2021/04/26 04:33:43;;;;;;;10.38;7.05;;;;;;;3.27;87.38;99352.00;3483034;28;20049;-47
2021/04/26 04:35:24;;;;;;;12.05;7.80;;;;;;;3.29;86.97;99352.94;3479954;28;20076;-47
2021/04/26 04:37:06;;;;;;;8.75;6.97;;;;;;;3.31;86.85;99350.44;3481720;28;20083;-46
2021/04/26 04:38:47;;;;;;;9.82;6.70;;;;;;;3.33;86.46;99356.47;3481174;28;20052;-46
2021/04/26 04:40:29;;;;;;;11.70;8.25;;;;;;;3.34;86.92;99345.44;3480077;28;20498;-47
2021/04/26 04:42:10;;;;;;;13.00;8.70;;;;;;;3.37;87.02;99340.41;3482699;28;20119;-47
2021/04/26 04:43:52;;;;;;;11.27;7.72;;;;;;;3.39;86.84;99351.59;3478385;28;20091;-46
2021/04/26 04:45:34;;;;;;;12.70;9.23;;;;;;;3.41;87.14;99350.81;3483212;28;20053;-54
2021/04/26 04:47:15;;;;;;;14.10;9.15;;;;;;;3.46;87.96;99359.56;3479326;28;20051;-52
2021/04/26 04:48:56;;;;;;;12.50;7.80;;;;;;;3.50;87.79;99362.25;3481793;28;20173;-52
2021/04/26 04:50:38;;;;;;;11.13;8.00;;;;;;;3.49;87.29;99352.78;3479714;28;20048;-53
2021/04/26 04:52:20;;;;;;;12.85;7.25;;;;;;;3.51;87.91;99356.31;3479856;28;20080;-54
2021/04/26 04:54:02;;;;;;;11.38;8.13;;;;;;;3.50;87.17;99344.28;3482489;28;20077;-52
2021/04/26 04:55:44;;;;;;;10.52;7.78;;;;;;;3.52;86.62;99347.78;3479305;28;20080;-53
2021/04/26 04:57:25;;;;;;;10.05;7.70;;;;;;;3.52;86.18;99345.22;3482555;28;20532;-51
2021/04/26 04:59:07;;;;;;;12.43;8.43;;;;;;;3.53;85.90;99335.03;3478145;28;20064;-53
2021/04/26 05:00:48;;;;;;;13.95;9.15;;;;;;;3.54;85.96;99338.44;3480899;28;20131;-54
2021/04/26 05:02:29;;;;;;;12.73;9.63;;;;;;;3.53;86.37;99329.03;3478554;28;20049;-55
2021/04/26 05:04:11;;;;;;;15.98;10.55;;;;;;;3.58;86.27;99338.63;3480439;28;20068;-52
2021/04/26 05:05:52;;;;;;;17.10;10.27;;;;;;;3.60;85.90;99336.13;3469110;28;20056;-51
2021/04/26 05:07:34;;;;;;;15.88;10.68;;;;;;;3.63;86.11;99343.94;3473919;28;20485;-51
2021/04/26 05:09:17;;;;;;;15.35;10.25;;;;;;;3.64;86.11;99343.09;3482569;28;20053;-50
2021/04/26 05:10:58;;;;;;;15.30;10.65;;;;;;;3.65;85.80;99353.41;3476695;28;20106;-51
2021/04/26 05:12:39;;;;;;;16.50;11.15;;;;;;;3.66;85.68;99349.16;3480858;28;20098;-51
2021/04/26 05:14:23;;;;;;;16.20;11.10;;;;;;;3.69;85.91;99348.41;3478600;28;20132;-51
2021/04/26 05:16:05;;;;;;;17.30;12.15;;;;;;;3.68;85.63;99350.06;3479514;28;20106;-47
2021/04/26 05:17:46;;;;;;;18.25;11.73;;;;;;;3.70;85.85;99356.16;3482509;28;20422;-46
2021/04/26 05:19:28;;;;;;;15.25;11.00;;;;;;;3.67;85.70;99343.22;3478387;28;20052;-47
2021/04/26 05:21:09;;;;;;;20.42;12.57;;;;;;;3.67;86.05;99352.63;3482685;28;20059;-47
2021/04/26 05:22:53;;;;;;;16.40;11.45;;;;;;;3.67;85.46;99352.63;3479192;28;20049;-47
2021/04/26 05:24:35;;;;;;;19.65;12.27;;;;;;;3.66;84.93;99349.16;3481309;28;20052;-47
2021/04/26 05:26:16;;;;;;;19.52;12.20;;;;;;;3.67;84.98;99350.06;3480528;28;20067;-47
2021/04/26 05:27:58;;;;;;;18.67;11.23;;;;;;;3.64;84.79;99356.78;3478337;28;20060;-49
2021/04/26 05:29:39;;;;;;;21.65;13.32;;;;;;;3.65;85.05;99357.69;3482344;28;20056;-47
2021/04/26 05:31:21;;;;;;;22.80;12.95;;;;;;;3.66;85.08;99361.97;3479385;28;20506;-47
2021/04/26 05:33:03;;;;;;;19.40;12.35;;;;;;;3.67;84.96;99360.31;3482829;28;20049;-51
2021/04/26 05:34:44;;;;;;;22.20;12.25;;;;;;;3.66;85.07;99359.41;3478253;28;20060;-52
2021/04/26 05:36:26;;;;;;;19.52;12.93;;;;;;;3.67;84.94;99357.75;3481721;28;20421;-47
2021/04/26 05:38:11;;;;;;;24.75;12.70;;;;;;;3.66;84.53;99354.28;3480334;28;20108;-47
2021/04/26 05:39:53;;;;;;;19.33;12.02;;;;;;;3.66;84.57;99359.41;3477829;28;20099;-46
2021/04/26 05:41:35;;;;;;;23.08;12.95;;;;;;;3.64;84.24;99353.34;3482181;28;20091;-47
2021/04/26 05:43:22;;;;;;;22.23;12.52;;;;;;;3.66;84.76;99356.84;3477510;28;20053;-47
2021/04/26 05:45:04;;;;;;;23.55;14.20;;;;;;;3.70;85.19;99351.03;3482436;28;20174;-47
2021/04/26 05:46:45;;;;;;;25.83;12.98;;;;;;;3.75;85.03;99353.75;3478580;28;20091;-47
2021/04/26 05:48:26;;;;;;;24.42;13.48;;;;;;;3.80;84.97;99362.47;3480783;28;20496;-50
2021/04/26 05:50:08;;;;;;;23.70;14.50;;;;;;;3.88;85.13;99355.03;3479622;28;20056;-51
2021/04/26 05:51:50;;;;;;;29.02;14.90;;;;;;;3.96;84.88;99349.34;3477928;28;20041;-47
2021/04/26 05:53:32;;;;;;;28.10;14.93;;;;;;;4.05;85.35;99351.38;3468753;28;20072;-50
2021/04/26 05:55:16;;;;;;;26.10;15.02;;;;;;;4.17;85.65;99351.78;3474596;28;20049;-53
2021/04/26 05:56:59;;;;;;;30.20;14.77;;;;;;;4.26;84.19;99350.38;3481517;28;20060;-52
2021/04/26 05:58:40;;;;;;;21.60;13.07;;;;;;;4.33;83.24;99352.31;3478183;28;20044;-50
2021/04/26 06:00:22;;;;;;;22.45;12.52;;;;;;;4.39;82.60;99338.00;3479107;28;20088;-51
2021/04/26 06:02:03;;;;;;;19.90;12.35;;;;;;;4.47;81.88;99339.94;3480784;28;20421;-52
2021/04/26 06:03:45;;;;;;;17.58;11.40;;;;;;;4.52;81.53;99338.38;3477526;28;20049;-47
2021/04/26 06:05:27;;;;;;;11.55;7.57;;;;;;;4.56;80.14;99338.53;3482200;28;20060;-46
2021/04/26 06:07:09;;;;;;;13.57;8.70;;;;;;;4.61;79.39;99333.53;3478792;28;20083;-47
2021/04/26 06:08:52;;;;;;;11.75;7.43;;;;;;;4.66;78.88;99337.13;3482042;28;20056;-51
2021/04/26 06:10:33;;;;;;;9.88;6.55;;;;;;;4.72;78.40;99339.88;3478900;28;20529;-50
2021/04/26 06:12:14;;;;;;;9.18;6.63;;;;;;;4.81;78.38;99339.28;3480231;28;20179;-51
2021/04/26 06:13:56;;;;;;;7.35;6.10;;;;;;;4.99;78.40;99342.47;3481539;28;20056;-51
2021/04/26 06:15:38;;;;;;;10.85;6.20;;;;;;;5.18;77.45;99333.59;3479566;28;20533;-53
2021/04/26 06:17:19;;;;;;;10.40;7.13;;;;;;;5.35;76.71;99331.50;3484326;28;20457;-51
2021/04/26 06:19:01;;;;;;;11.98;7.25;;;;;;;5.54;75.69;99326.91;3479787;28;20134;-47
2021/04/26 06:20:45;;;;;;;11.43;6.82;;;;;;;5.71;75.31;99335.97;3484062;28;20060;-47
2021/04/26 06:22:26;;;;;;;8.93;6.28;;;;;;;5.90;74.79;99329.59;3480497;28;20069;-47
2021/04/26 06:24:09;;;;;;;6.97;5.28;;;;;;;6.11;73.34;99331.88;3482256;28;20060;-47
2021/04/26 06:25:50;;;;;;;8.57;6.30;;;;;;;6.27;72.31;99338.28;3482771;28;20399;-47
2021/04/26 06:27:31;;;;;;;9.77;6.70;;;;;;;6.36;72.59;99337.63;3481023;28;20132;-50
2021/04/26 06:29:13;;;;;;;7.35;6.10;;;;;;;6.43;72.56;99336.97;3484493;28;20502;-50
2021/04/26 06:30:54;;;;;;;9.63;6.15;;;;;;;6.45;70.75;99337.91;3479885;28;20433;-50
2021/04/26 06:32:36;;;;;;;8.07;5.57;;;;;;;6.44;70.05;99332.69;3483703;28;20077;-50
2021/04/26 06:34:17;;;;;;;10.95;7.03;;;;;;;6.31;70.55;99336.66;3480417;28;20060;-50
2021/04/26 06:35:59;;;;;;;8.30;6.15;;;;;;;6.17;69.67;99333.75;3482363;28;20122;-50
2021/04/26 06:37:40;;;;;;;13.43;7.13;;;;;;;6.08;71.57;99331.81;3483409;28;20506;-49
2021/04/26 06:39:23;;;;;;;10.52;8.07;;;;;;;6.06;75.32;99335.16;3482211;28;20079;-47
2021/04/26 06:41:05;;;;;;;10.07;6.63;;;;;;;6.04;74.51;99335.13;3483967;28;20126;-47
2021/04/26 06:42:46;;;;;;;10.00;6.93;;;;;;;5.88;72.25;99336.41;3479580;28;20485;-54
2021/04/26 06:44:28;;;;;;;8.00;6.05;;;;;;;5.68;72.79;99335.88;3481490;28;20053;-53
2021/04/26 06:46:10;;;;;;;9.80;6.85;;;;;;;5.48;73.28;99337.91;3481566;28;20425;-52
2021/04/26 06:47:52;;;;;;;11.80;6.82;;;;;;;5.47;74.30;99337.84;3480452;28;20052;-46
2021/04/26 06:49:33;;;;;;;9.85;6.38;;;;;;;5.59;73.57;99335.63;3483560;28;20049;-47
2021/04/26 06:51:14;;;;;;;11.60;7.22;;;;;;;5.71;72.72;99338.53;3479549;28;20056;-47
2021/04/26 06:52:56;;;;;;;12.43;7.50;;;;;;;5.89;73.96;99334.72;3484264;28;20045;-51
2021/04/26 06:54:38;;;;;;;10.10;7.82;;;;;;;6.12;73.29;99330.19;3480618;28;20060;-51
2021/04/26 06:56:19;;;;;;;12.80;8.25;;;;;;;6.23;71.83;99331.31;3480804;28;20069;-47
2021/04/26 06:58:01;;;;;;;12.93;9.57;;;;;;;6.29;70.59;99328.91;3481765;28;20049;-48
2021/04/26 06:59:42;;;;;;;11.25;8.13;;;;;;;6.24;70.09;99327.03;3481074;28;20072;-54
2021/04/26 07:01:24;;;;;;;14.85;8.75;;;;;;;6.22;69.76;99327.00;3483968;28;20064;-52
2021/04/26 07:03:06;;;;;;;14.18;8.60;;;;;;;6.32;69.00;99325.53;3480500;28;20049;-53
2021/04/26 07:04:47;;;;;;;14.15;9.80;;;;;;;6.37;70.39;99323.94;3484362;28;20060;-53
2021/04/26 07:06:28;;;;;;;12.93;8.90;;;;;;;6.55;69.52;99320.06;3480416;28;20064;-53
2021/04/26 07:08:10;;;;;;;11.65;8.13;;;;;;;6.58;68.73;99323.59;3482519;28;20396;-51
2021/04/26 07:09:52;;;;;;;15.30;7.90;;;;;;;6.64;68.66;99333.19;3482419;28;20118;-53
2021/04/26 07:11:33;;;;;;;12.75;7.45;;;;;;;6.86;69.79;99329.41;3482214;28;20045;-50
2021/04/26 07:13:16;;;;;;;10.40;7.68;;;;;;;7.17;72.69;99323.22;3480857;28;20060;-54
2021/04/26 07:14:59;;;;;;;10.43;8.35;;;;;;;7.47;69.27;99321.28;3480315;28;20084;-54
2021/04/26 07:16:41;;;;;;;14.48;8.35;;;;;;;7.69;66.24;99326.03;3484301;28;20056;-52
2021/04/26 07:18:23;;;;;;;13.20;8.15;;;;;;;7.97;66.54;99323.97;3480341;28;20104;-50
2021/04/26 07:20:06;;;;;;;13.38;9.32;;;;;;;8.16;67.65;99323.44;3481659;28;20053;-53
2021/04/26 07:21:50;;;;;;;11.93;7.95;;;;;;;8.39;65.51;99317.81;3482226;28;20045;-52
2021/04/26 07:23:31;;;;;;;14.13;6.47;;;;;;;8.47;58.79;99318.81;3478935;28;20072;-53
2021/04/26 07:25:14;;;;;;;8.23;5.55;;;;;;;8.41;56.92;99310.94;3482829;28;20053;-53
2021/04/26 07:26:55;;;;;;;11.45;6.47;;;;;;;8.44;59.62;99318.75;3478728;28;20053;-53
2021/04/26 07:28:37;;;;;;;14.32;8.35;;;;;;;8.65;60.31;99314.78;3483847;28;20049;-54
2021/04/26 07:30:20;;;;;;;8.82;5.93;;;;;;;8.94;61.43;99315.22;3480532;28;20045;-48
2021/04/26 07:32:01;;;;;;;7.28;5.30;;;;;;;9.17;56.12;99315.56;3481805;28;20052;-48
2021/04/26 07:33:43;;;;;;;7.38;5.28;;;;;;;9.16;56.05;99303.44;3482662;28;20110;-48
2021/04/26 07:35:24;;;;;;;9.25;5.85;;;;;;;9.23;56.20;99302.69;3479399;28;20106;-53
2021/04/26 07:37:05;;;;;;;9.45;5.68;;;;;;;9.39;57.99;99306.34;3483349;28;20052;-53
2021/04/26 07:38:47;;;;;;;8.35;5.50;;;;;;;9.45;55.92;99302.97;3479289;28;20055;-47
2021/04/26 07:40:29;;;;;;;12.85;5.68;;;;;;;9.33;55.38;99309.72;3483554;28;20498;-48
2021/04/26 07:42:11;;;;;;;7.72;5.47;;;;;;;9.07;59.24;99313.69;3473621;28;20041;-51
2021/04/26 07:43:52;;;;;;;11.45;4.97;;;;;;;8.78;55.78;99306.34;3469379;28;20045;-49
2021/04/26 07:45:34;;;;;;;9.77;5.30;;;;;;;8.54;57.23;99312.03;3482249;28;20425;-48
2021/04/26 07:47:16;;;;;;;8.85;4.97;;;;;;;8.28;57.64;99309.03;3480036;28;20502;-47
2021/04/26 07:48:57;;;;;;;6.25;3.42;;;;;;;8.13;54.86;99301.84;3484244;28;20060;-52
2021/04/26 07:50:39;;;;;;;5.97;3.45;;;;;;;8.09;59.01;99316.44;3479795;28;20052;-52
2021/04/26 07:52:21;;;;;;;5.80;2.90;;;;;;;8.15;58.18;99297.63;3483772;28;20095;-55
2021/04/26 07:54:03;;;;;;;4.05;2.20;;;;;;;8.23;52.39;99305.47;3479841;28;20057;-54
2021/04/26 07:55:44;;;;;;;3.08;2.25;;;;;;;8.30;54.66;99310.75;3480150;28;20473;-54
2021/04/26 07:57:26;;;;;;;3.05;1.75;;;;;;;8.40;55.66;99306.63;3480585;28;20476;-53
2021/04/26 07:59:08;;;;;;;3.83;2.15;;;;;;;8.50;52.14;99295.59;3479013;28;20048;-47
2021/04/26 08:00:49;;;;;;;3.47;2.22;;;;;;;8.48;48.38;99299.00;3483425;28;20146;-55
2021/04/26 08:02:30;;;;;;;3.58;2.08;;;;;;;8.51;50.88;99309.41;3478489;28;20502;-54
2021/04/26 08:04:12;;;;;;;3.70;2.22;;;;;;;8.59;55.98;99306.09;3483469;28;20048;-55
2021/04/26 08:05:54;;;;;;;3.88;2.25;;;;;;;8.66;56.30;99313.94;3478577;28;20060;-54
2021/04/26 08:07:35;;;;;;;6.18;1.70;;;;;;;8.64;47.99;99298.41;3480154;28;20053;-52